sensor_id;sensor_type;location;lat;lon;timestamp;pressure;altitude;pressure_sealevel;temperature
45976;BMP280;31696;42.668;23.322;2023-09-19T00:00:50;95050.91;;;17.41
45976;BMP280;31696;42.668;23.322;2023-09-19T00:02:57;95046.69;;;17.90
45976;BMP280;31696;42.668;23.322;2023-09-19T00:04:59;95059.28;;;17.70
45976;BMP280;31696;42.668;23.322;2023-09-19T00:07:03;95060.38;;;17.34
45976;BMP280;31696;42.668;23.322;2023-09-19T00:09:04;95060.94;;;17.33
45976;BMP280;31696;42.668;23.322;2023-09-19T00:11:04;95053.56;;;17.20
45976;BMP280;31696;42.668;23.322;2023-09-19T00:13:05;95050.06;;;17.27
45976;BMP280;31696;42.668;23.322;2023-09-19T00:15:07;95058.81;;;17.20
45976;BMP280;31696;42.668;23.322;2023-09-19T00:17:07;95065.59;;;16.82
45976;BMP280;31696;42.668;23.322;2023-09-19T00:19:08;95055.94;;;17.37
45976;BMP280;31696;42.668;23.322;2023-09-19T00:21:09;95059.53;;;17.32
45976;BMP280;31696;42.668;23.322;2023-09-19T00:23:10;95046.19;;;17.28
45976;BMP280;31696;42.668;23.322;2023-09-19T00:25:10;95051.03;;;16.70
45976;BMP280;31696;42.668;23.322;2023-09-19T00:27:11;95039.81;;;17.10
45976;BMP280;31696;42.668;23.322;2023-09-19T00:29:12;95044.31;;;16.57
45976;BMP280;31696;42.668;23.322;2023-09-19T00:31:16;95043.25;;;16.81
45976;BMP280;31696;42.668;23.322;2023-09-19T00:33:16;95032.66;;;17.00
45976;BMP280;31696;42.668;23.322;2023-09-19T00:35:19;95033.97;;;16.80
45976;BMP280;31696;42.668;23.322;2023-09-19T00:37:19;95037.50;;;16.73
45976;BMP280;31696;42.668;23.322;2023-09-19T00:39:19;95033.88;;;16.78
45976;BMP280;31696;42.668;23.322;2023-09-19T00:41:20;95020.19;;;16.49
45976;BMP280;31696;42.668;23.322;2023-09-19T00:43:21;95035.63;;;16.45
45976;BMP280;31696;42.668;23.322;2023-09-19T00:45:24;95027.09;;;16.85
45976;BMP280;31696;42.668;23.322;2023-09-19T00:47:24;95031.97;;;16.79
45976;BMP280;31696;42.668;23.322;2023-09-19T00:49:25;95028.44;;;16.86
45976;BMP280;31696;42.668;23.322;2023-09-19T00:51:26;95029.47;;;17.02
45976;BMP280;31696;42.668;23.322;2023-09-19T00:53:27;95031.09;;;17.07
45976;BMP280;31696;42.668;23.322;2023-09-19T00:55:28;95034.31;;;16.65
45976;BMP280;31696;42.668;23.322;2023-09-19T00:57:30;95035.28;;;17.22
45976;BMP280;31696;42.668;23.322;2023-09-19T00:59:32;95030.16;;;17.03
45976;BMP280;31696;42.668;23.322;2023-09-19T01:01:33;95036.13;;;16.72
45976;BMP280;31696;42.668;23.322;2023-09-19T01:03:33;95034.19;;;16.32
45976;BMP280;31696;42.668;23.322;2023-09-19T01:05:34;95034.94;;;16.45
45976;BMP280;31696;42.668;23.322;2023-09-19T01:07:34;95035.69;;;16.26
45976;BMP280;31696;42.668;23.322;2023-09-19T01:09:35;95043.25;;;16.41
45976;BMP280;31696;42.668;23.322;2023-09-19T01:11:36;95034.88;;;16.33
45976;BMP280;31696;42.668;23.322;2023-09-19T01:13:47;95031.56;;;16.23
45976;BMP280;31696;42.668;23.322;2023-09-19T01:22:21;95048.06;;;16.85
45976;BMP280;31696;42.668;23.322;2023-09-19T01:29:01;95047.44;;;16.96
45976;BMP280;31696;42.668;23.322;2023-09-19T01:31:13;95049.00;;;16.89
45976;BMP280;31696;42.668;23.322;2023-09-19T01:33:15;95037.22;;;16.69
45976;BMP280;31696;42.668;23.322;2023-09-19T01:35:16;95040.47;;;16.49
45976;BMP280;31696;42.668;23.322;2023-09-19T01:37:19;95033.78;;;15.98
45976;BMP280;31696;42.668;23.322;2023-09-19T01:39:20;95031.78;;;16.46
45976;BMP280;31696;42.668;23.322;2023-09-19T01:41:25;95035.69;;;16.26
45976;BMP280;31696;42.668;23.322;2023-09-19T01:43:27;95034.94;;;16.45
45976;BMP280;31696;42.668;23.322;2023-09-19T01:47:46;95033.16;;;16.47
45976;BMP280;31696;42.668;23.322;2023-09-19T01:52:11;95038.16;;;16.43
45976;BMP280;31696;42.668;23.322;2023-09-19T01:54:17;95033.41;;;16.51
45976;BMP280;31696;42.668;23.322;2023-09-19T01:56:22;95026.31;;;16.23
45976;BMP280;31696;42.668;23.322;2023-09-19T01:58:57;95026.09;;;16.00
45976;BMP280;31696;42.668;23.322;2023-09-19T02:00:50;95035.69;;;16.26
45976;BMP280;31696;42.668;23.322;2023-09-19T02:02:54;95040.13;;;16.33
45976;BMP280;31696;42.668;23.322;2023-09-19T02:04:58;95042.88;;;16.16
45976;BMP280;31696;42.668;23.322;2023-09-19T02:07:01;95038.38;;;16.07
45976;BMP280;31696;42.668;23.322;2023-09-19T02:09:02;95054.31;;;15.82
45976;BMP280;31696;42.668;23.322;2023-09-19T02:11:04;95036.66;;;16.21
45976;BMP280;31696;42.668;23.322;2023-09-19T02:13:04;95040.56;;;15.82
45976;BMP280;31696;42.668;23.322;2023-09-19T02:15:06;95038.75;;;16.03
45976;BMP280;31696;42.668;23.322;2023-09-19T02:17:07;95032.66;;;16.20
45976;BMP280;31696;42.668;23.322;2023-09-19T02:19:09;95038.19;;;16.14
45976;BMP280;31696;42.668;23.322;2023-09-19T02:21:10;95041.94;;;15.92
45976;BMP280;31696;42.668;23.322;2023-09-19T02:23:12;95031.59;;;16.04
45976;BMP280;31696;42.668;23.322;2023-09-19T02:25:13;95028.44;;;15.96
45976;BMP280;31696;42.668;23.322;2023-09-19T02:27:14;95034.91;;;15.56
45976;BMP280;31696;42.668;23.322;2023-09-19T02:29:16;95036.00;;;15.72
45976;BMP280;31696;42.668;23.322;2023-09-19T02:31:16;95023.88;;;15.48
45976;BMP280;31696;42.668;23.322;2023-09-19T02:33:17;95030.78;;;15.72
45976;BMP280;31696;42.668;23.322;2023-09-19T02:35:17;95032.00;;;15.62
45976;BMP280;31696;42.668;23.322;2023-09-19T02:37:21;95027.75;;;15.86
45976;BMP280;31696;42.668;23.322;2023-09-19T02:39:22;95027.75;;;15.76
45976;BMP280;31696;42.668;23.322;2023-09-19T02:41:23;95025.84;;;15.86
45976;BMP280;31696;42.668;23.322;2023-09-19T02:43:24;95023.88;;;15.67
45976;BMP280;31696;42.668;23.322;2023-09-19T02:45:24;95020.56;;;15.57
45976;BMP280;31696;42.668;23.322;2023-09-19T02:47:25;95027.75;;;15.66
45976;BMP280;31696;42.668;23.322;2023-09-19T02:49:26;95012.59;;;15.75
45976;BMP280;31696;42.668;23.322;2023-09-19T02:51:27;95017.00;;;15.82
45976;BMP280;31696;42.668;23.322;2023-09-19T02:53:27;95013.41;;;15.58
45976;BMP280;31696;42.668;23.322;2023-09-19T02:55:28;95010.53;;;15.63
45976;BMP280;31696;42.668;23.322;2023-09-19T02:57:29;95009.97;;;15.55
45976;BMP280;31696;42.668;23.322;2023-09-19T02:59:31;95007.22;;;15.53
45976;BMP280;31696;42.668;23.322;2023-09-19T03:01:31;95008.59;;;15.54
45976;BMP280;31696;42.668;23.322;2023-09-19T03:03:32;95011.22;;;15.54
45976;BMP280;31696;42.668;23.322;2023-09-19T03:05:34;95003.91;;;15.53
45976;BMP280;31696;42.668;23.322;2023-09-19T03:07:34;94999.09;;;15.49
45976;BMP280;31696;42.668;23.322;2023-09-19T03:09:34;94995.34;;;15.43
45976;BMP280;31696;42.668;23.322;2023-09-19T03:11:35;94989.03;;;15.46
45976;BMP280;31696;42.668;23.322;2023-09-19T03:13:35;94994.00;;;15.42
45976;BMP280;31696;42.668;23.322;2023-09-19T03:15:43;95017.94;;;15.38
45976;BMP280;31696;42.668;23.322;2023-09-19T03:17:48;94993.41;;;15.43
45976;BMP280;31696;42.668;23.322;2023-09-19T03:19:52;94995.91;;;15.41
45976;BMP280;31696;42.668;23.322;2023-09-19T03:21:54;94994.81;;;15.44
45976;BMP280;31696;42.668;23.322;2023-09-19T03:23:54;94987.50;;;15.52
45976;BMP280;31696;42.668;23.322;2023-09-19T03:25:55;95017.00;;;15.62
45976;BMP280;31696;42.668;23.322;2023-09-19T03:27:56;94987.38;;;15.69
45976;BMP280;31696;42.668;23.322;2023-09-19T03:29:58;94990.56;;;15.58
45976;BMP280;31696;42.668;23.322;2023-09-19T03:31:59;94991.59;;;15.27
45976;BMP280;31696;42.668;23.322;2023-09-19T03:33:59;94998.38;;;15.39
45976;BMP280;31696;42.668;23.322;2023-09-19T03:36:03;94992.47;;;15.29
45976;BMP280;31696;42.668;23.322;2023-09-19T03:38:07;94995.63;;;15.28
45976;BMP280;31696;42.668;23.322;2023-09-19T03:40:08;95002.66;;;15.35
45976;BMP280;31696;42.668;23.322;2023-09-19T03:42:10;95000.03;;;15.44
45976;BMP280;31696;42.668;23.322;2023-09-19T03:44:11;95014.78;;;15.49
45976;BMP280;31696;42.668;23.322;2023-09-19T03:46:11;95006.50;;;15.43
45976;BMP280;31696;42.668;23.322;2023-09-19T03:48:13;95010.78;;;15.29
45976;BMP280;31696;42.668;23.322;2023-09-19T03:50:15;95015.84;;;15.18
45976;BMP280;31696;42.668;23.322;2023-09-19T03:52:17;95007.03;;;15.32
45976;BMP280;31696;42.668;23.322;2023-09-19T03:54:17;95017.25;;;15.28
45976;BMP280;31696;42.668;23.322;2023-09-19T03:56:19;95018.03;;;15.21
45976;BMP280;31696;42.668;23.322;2023-09-19T03:58:20;95018.03;;;15.21
45976;BMP280;31696;42.668;23.322;2023-09-19T04:00:20;95017.81;;;15.36
45976;BMP280;31696;42.668;23.322;2023-09-19T04:02:23;95019.69;;;15.26
45976;BMP280;31696;42.668;23.322;2023-09-19T04:04:25;95016.75;;;14.93
45976;BMP280;31696;42.668;23.322;2023-09-19T04:06:25;95013.41;;;15.29
45976;BMP280;31696;42.668;23.322;2023-09-19T04:08:27;95011.47;;;15.39
45976;BMP280;31696;42.668;23.322;2023-09-19T04:10:27;95017.38;;;15.21
45976;BMP280;31696;42.668;23.322;2023-09-19T04:12:28;95028.38;;;15.19
45976;BMP280;31696;42.668;23.322;2023-09-19T04:14:29;95020.53;;;15.19
45976;BMP280;31696;42.668;23.322;2023-09-19T04:16:29;95041.50;;;15.38
45976;BMP280;31696;42.668;23.322;2023-09-19T04:18:30;95031.44;;;15.44
45976;BMP280;31696;42.668;23.322;2023-09-19T04:20:34;95038.31;;;15.30
45976;BMP280;31696;42.668;23.322;2023-09-19T04:22:34;95034.47;;;15.31
45976;BMP280;31696;42.668;23.322;2023-09-19T04:24:35;95034.06;;;15.35
45976;BMP280;31696;42.668;23.322;2023-09-19T04:26:35;95031.97;;;15.43
45976;BMP280;31696;42.668;23.322;2023-09-19T04:28:36;95027.00;;;15.37
45976;BMP280;31696;42.668;23.322;2023-09-19T04:30:38;95020.44;;;15.46
45976;BMP280;31696;42.668;23.322;2023-09-19T04:32:40;95028.69;;;15.52
45976;BMP280;31696;42.668;23.322;2023-09-19T04:34:41;95019.75;;;15.36
45976;BMP280;31696;42.668;23.322;2023-09-19T04:36:41;95049.19;;;15.36
45976;BMP280;31696;42.668;23.322;2023-09-19T04:38:42;95027.31;;;15.41
45976;BMP280;31696;42.668;23.322;2023-09-19T04:40:42;95024.81;;;15.34
45976;BMP280;31696;42.668;23.322;2023-09-19T04:42:43;95021.66;;;15.54
45976;BMP280;31696;42.668;23.322;2023-09-19T04:44:43;95013.56;;;15.50
45976;BMP280;31696;42.668;23.322;2023-09-19T04:46:44;95013.41;;;15.48
45976;BMP280;31696;42.668;23.322;2023-09-19T04:48:44;95008.47;;;15.52
45976;BMP280;31696;42.668;23.322;2023-09-19T04:50:45;95010.78;;;15.67
45976;BMP280;31696;42.668;23.322;2023-09-19T04:52:45;95018.53;;;15.56
45976;BMP280;31696;42.668;23.322;2023-09-19T04:54:45;95016.19;;;15.69
45976;BMP280;31696;42.668;23.322;2023-09-19T04:56:48;95010.78;;;15.87
45976;BMP280;31696;42.668;23.322;2023-09-19T04:58:48;95008.69;;;16.14
45976;BMP280;31696;42.668;23.322;2023-09-19T05:00:49;95002.94;;;16.06
45976;BMP280;31696;42.668;23.322;2023-09-19T05:02:51;95001.84;;;15.80
45976;BMP280;31696;42.668;23.322;2023-09-19T05:04:52;95009.53;;;16.07
45976;BMP280;31696;42.668;23.322;2023-09-19T05:06:53;95001.00;;;15.78
45976;BMP280;31696;42.668;23.322;2023-09-19T05:08:54;95007.75;;;15.52
45976;BMP280;31696;42.668;23.322;2023-09-19T05:10:54;95008.69;;;15.37
45976;BMP280;31696;42.668;23.322;2023-09-19T05:12:56;94998.38;;;15.87
45976;BMP280;31696;42.668;23.322;2023-09-19T05:14:57;95013.66;;;16.10
45976;BMP280;31696;42.668;23.322;2023-09-19T05:16:57;95010.69;;;16.44
45976;BMP280;31696;42.668;23.322;2023-09-19T05:18:58;95004.91;;;16.36
45976;BMP280;31696;42.668;23.322;2023-09-19T05:21:01;95000.50;;;16.29
45976;BMP280;31696;42.668;23.322;2023-09-19T05:23:02;95002.81;;;16.44
45976;BMP280;31696;42.668;23.322;2023-09-19T05:25:03;94998.25;;;16.75
45976;BMP280;31696;42.668;23.322;2023-09-19T05:27:04;95001.72;;;16.47
45976;BMP280;31696;42.668;23.322;2023-09-19T05:29:07;95007.03;;;16.59
45976;BMP280;31696;42.668;23.322;2023-09-19T05:31:09;94995.50;;;16.52
45976;BMP280;31696;42.668;23.322;2023-09-19T05:33:10;94996.28;;;16.85
45976;BMP280;31696;42.668;23.322;2023-09-19T05:35:10;94993.94;;;16.89
45976;BMP280;31696;42.668;23.322;2023-09-19T05:37:13;94982.28;;;16.71
45976;BMP280;31696;42.668;23.322;2023-09-19T05:39:16;94982.16;;;16.69
45976;BMP280;31696;42.668;23.322;2023-09-19T05:41:16;94988.16;;;16.81
45976;BMP280;31696;42.668;23.322;2023-09-19T05:43:18;94989.44;;;17.02
45976;BMP280;31696;42.668;23.322;2023-09-19T05:45:19;94985.75;;;17.16
45976;BMP280;31696;42.668;23.322;2023-09-19T05:47:22;94986.34;;;17.15
45976;BMP280;31696;42.668;23.322;2023-09-19T05:49:22;94979.03;;;16.61
45976;BMP280;31696;42.668;23.322;2023-09-19T05:51:24;94981.59;;;16.71
45976;BMP280;31696;42.668;23.322;2023-09-19T05:53:29;94991.50;;;17.03
45976;BMP280;31696;42.668;23.322;2023-09-19T05:55:30;94987.72;;;17.16
45976;BMP280;31696;42.668;23.322;2023-09-19T05:57:30;94984.69;;;17.31
45976;BMP280;31696;42.668;23.322;2023-09-19T05:59:31;94991.06;;;17.28
45976;BMP280;31696;42.668;23.322;2023-09-19T06:01:31;94990.63;;;17.31
45976;BMP280;31696;42.668;23.322;2023-09-19T06:03:34;95005.19;;;17.02
45976;BMP280;31696;42.668;23.322;2023-09-19T06:05:35;94980.75;;;16.78
45976;BMP280;31696;42.668;23.322;2023-09-19T06:07:36;94992.69;;;17.33
45976;BMP280;31696;42.668;23.322;2023-09-19T06:09:37;94966.44;;;17.54
45976;BMP280;31696;42.668;23.322;2023-09-19T06:11:37;94976.09;;;17.84
45976;BMP280;31696;42.668;23.322;2023-09-19T06:13:38;94977.38;;;17.95
45976;BMP280;31696;42.668;23.322;2023-09-19T06:15:39;94970.22;;;18.53
45976;BMP280;31696;42.668;23.322;2023-09-19T06:17:46;94973.09;;;18.57
45976;BMP280;31696;42.668;23.322;2023-09-19T06:19:46;94979.69;;;18.23
45976;BMP280;31696;42.668;23.322;2023-09-19T06:21:47;94973.19;;;18.24
45976;BMP280;31696;42.668;23.322;2023-09-19T06:23:47;94970.31;;;18.44
45976;BMP280;31696;42.668;23.322;2023-09-19T06:25:48;94966.19;;;18.17
45976;BMP280;31696;42.668;23.322;2023-09-19T06:27:49;94987.59;;;18.47
45976;BMP280;31696;42.668;23.322;2023-09-19T06:29:52;94964.81;;;18.86
45976;BMP280;31696;42.668;23.322;2023-09-19T06:31:52;94961.63;;;18.64
45976;BMP280;31696;42.668;23.322;2023-09-19T06:33:53;94958.81;;;19.34
45976;BMP280;31696;42.668;23.322;2023-09-19T06:35:53;94958.47;;;19.39
45976;BMP280;31696;42.668;23.322;2023-09-19T06:38:01;94960.22;;;19.23
45976;BMP280;31696;42.668;23.322;2023-09-19T06:40:03;94972.69;;;19.34
45976;BMP280;31696;42.668;23.322;2023-09-19T06:42:05;94968.13;;;19.74
45976;BMP280;31696;42.668;23.322;2023-09-19T06:44:06;94967.63;;;19.38
45976;BMP280;31696;42.668;23.322;2023-09-19T06:46:07;94969.13;;;19.30
45976;BMP280;31696;42.668;23.322;2023-09-19T06:48:07;94964.09;;;18.97
45976;BMP280;31696;42.668;23.322;2023-09-19T06:50:10;94974.25;;;18.91
45976;BMP280;31696;42.668;23.322;2023-09-19T06:52:13;94975.66;;;18.92
45976;BMP280;31696;42.668;23.322;2023-09-19T06:54:15;94971.72;;;19.05
45976;BMP280;31696;42.668;23.322;2023-09-19T06:56:15;94972.25;;;19.26
45976;BMP280;31696;42.668;23.322;2023-09-19T06:58:15;94974.78;;;19.24
45976;BMP280;31696;42.668;23.322;2023-09-19T07:00:16;94978.97;;;19.54
45976;BMP280;31696;42.668;23.322;2023-09-19T07:02:22;94977.50;;;19.51
45976;BMP280;31696;42.668;23.322;2023-09-19T07:04:22;94985.69;;;19.69
45976;BMP280;31696;42.668;23.322;2023-09-19T07:06:22;94979.66;;;19.55
45976;BMP280;31696;42.668;23.322;2023-09-19T07:08:23;94982.88;;;19.53
45976;BMP280;31696;42.668;23.322;2023-09-19T07:10:23;94980.31;;;19.81
45976;BMP280;31696;42.668;23.322;2023-09-19T07:12:24;94981.94;;;19.99
45976;BMP280;31696;42.668;23.322;2023-09-19T07:14:24;94973.88;;;19.84
45976;BMP280;31696;42.668;23.322;2023-09-19T07:16:24;94976.72;;;19.88
45976;BMP280;31696;42.668;23.322;2023-09-19T07:18:29;94979.09;;;20.09
45976;BMP280;31696;42.668;23.322;2023-09-19T07:20:30;94978.09;;;19.89
45976;BMP280;31696;42.668;23.322;2023-09-19T07:22:32;94989.34;;;19.89
45976;BMP280;31696;42.668;23.322;2023-09-19T07:24:32;94987.25;;;19.88
45976;BMP280;31696;42.668;23.322;2023-09-19T07:26:33;94982.13;;;19.90
45976;BMP280;31696;42.668;23.322;2023-09-19T07:28:33;94983.97;;;19.87
45976;BMP280;31696;42.668;23.322;2023-09-19T07:30:38;94978.19;;;19.91
45976;BMP280;31696;42.668;23.322;2023-09-19T07:32:39;94985.56;;;19.67
45976;BMP280;31696;42.668;23.322;2023-09-19T07:34:40;94991.72;;;19.46
45976;BMP280;31696;42.668;23.322;2023-09-19T07:36:41;94989.38;;;19.64
45976;BMP280;31696;42.668;23.322;2023-09-19T07:38:42;94990.81;;;19.42
45976;BMP280;31696;42.668;23.322;2023-09-19T07:40:43;94982.00;;;19.88
45976;BMP280;31696;42.668;23.322;2023-09-19T07:42:43;94983.47;;;19.91
45976;BMP280;31696;42.668;23.322;2023-09-19T07:44:46;94986.03;;;19.63
45976;BMP280;31696;42.668;23.322;2023-09-19T07:46:49;94988.09;;;19.65
45976;BMP280;31696;42.668;23.322;2023-09-19T07:48:51;94992.25;;;19.56
45976;BMP280;31696;42.668;23.322;2023-09-19T07:50:51;94997.19;;;19.76
45976;BMP280;31696;42.668;23.322;2023-09-19T07:52:52;94993.88;;;19.75
45976;BMP280;31696;42.668;23.322;2023-09-19T07:54:53;94988.97;;;19.95
45976;BMP280;31696;42.668;23.322;2023-09-19T07:56:53;94985.63;;;19.94
45976;BMP280;31696;42.668;23.322;2023-09-19T07:58:55;94989.28;;;20.14
45976;BMP280;31696;42.668;23.322;2023-09-19T08:01:02;94987.16;;;20.38
45976;BMP280;31696;42.668;23.322;2023-09-19T08:03:03;94986.84;;;20.32
45976;BMP280;31696;42.668;23.322;2023-09-19T08:05:04;94990.06;;;20.17
45976;BMP280;31696;42.668;23.322;2023-09-19T08:07:11;94983.25;;;20.66
45976;BMP280;31696;42.668;23.322;2023-09-19T08:09:11;94987.56;;;20.46
45976;BMP280;31696;42.668;23.322;2023-09-19T08:11:14;94972.00;;;20.52
45976;BMP280;31696;42.668;23.322;2023-09-19T08:13:21;94969.81;;;20.21
45976;BMP280;31696;42.668;23.322;2023-09-19T08:15:22;94964.09;;;20.25
45976;BMP280;31696;42.668;23.322;2023-09-19T08:17:22;94970.16;;;20.41
45976;BMP280;31696;42.668;23.322;2023-09-19T08:19:23;94969.16;;;20.75
45976;BMP280;31696;42.668;23.322;2023-09-19T08:21:23;94965.09;;;20.45
45976;BMP280;31696;42.668;23.322;2023-09-19T08:23:24;94957.81;;;20.73
45976;BMP280;31696;42.668;23.322;2023-09-19T08:25:24;94953.16;;;20.44
45976;BMP280;31696;42.668;23.322;2023-09-19T08:27:29;94953.41;;;20.77
45976;BMP280;31696;42.668;23.322;2023-09-19T08:29:29;94953.28;;;20.89
45976;BMP280;31696;42.668;23.322;2023-09-19T08:31:30;94959.22;;;21.03
45976;BMP280;31696;42.668;23.322;2023-09-19T08:33:34;94963.22;;;21.33
45976;BMP280;31696;42.668;23.322;2023-09-19T08:35:35;94967.34;;;20.93
45976;BMP280;31696;42.668;23.322;2023-09-19T08:37:36;94967.38;;;21.23
45976;BMP280;31696;42.668;23.322;2023-09-19T08:39:36;94965.88;;;21.49
45976;BMP280;31696;42.668;23.322;2023-09-19T08:41:37;94971.78;;;21.63
45976;BMP280;31696;42.668;23.322;2023-09-19T08:43:37;94963.50;;;21.55
45976;BMP280;31696;42.668;23.322;2023-09-19T08:45:37;94968.38;;;21.16
45976;BMP280;31696;42.668;23.322;2023-09-19T08:47:42;94956.44;;;21.44
45976;BMP280;31696;42.668;23.322;2023-09-19T08:51:54;94953.81;;;21.75
45976;BMP280;31696;42.668;23.322;2023-09-19T08:56:00;94973.56;;;21.43
45976;BMP280;31696;42.668;23.322;2023-09-19T08:58:03;94948.16;;;21.36
45976;BMP280;31696;42.668;23.322;2023-09-19T09:00:04;94953.16;;;21.30
45976;BMP280;31696;42.668;23.322;2023-09-19T09:02:12;94947.13;;;21.14
45976;BMP280;31696;42.668;23.322;2023-09-19T09:04:14;94950.78;;;20.77
45976;BMP280;31696;42.668;23.322;2023-09-19T09:06:14;94938.56;;;20.70
45976;BMP280;31696;42.668;23.322;2023-09-19T09:08:15;94943.56;;;21.07
45976;BMP280;31696;42.668;23.322;2023-09-19T09:10:17;94948.50;;;21.15
45976;BMP280;31696;42.668;23.322;2023-09-19T09:12:18;94940.84;;;21.21
45976;BMP280;31696;42.668;23.322;2023-09-19T09:14:19;94942.31;;;21.08
45976;BMP280;31696;42.668;23.322;2023-09-19T09:16:21;94943.06;;;21.11
45976;BMP280;31696;42.668;23.322;2023-09-19T09:18:25;94938.72;;;21.17
45976;BMP280;31696;42.668;23.322;2023-09-19T09:20:26;94934.47;;;21.26
45976;BMP280;31696;42.668;23.322;2023-09-19T09:22:27;94950.75;;;21.20
45976;BMP280;31696;42.668;23.322;2023-09-19T09:24:28;94923.69;;;21.35
45976;BMP280;31696;42.668;23.322;2023-09-19T09:26:41;94931.06;;;21.08
45976;BMP280;31696;42.668;23.322;2023-09-19T09:28:46;94934.34;;;20.79
45976;BMP280;31696;42.668;23.322;2023-09-19T09:30:48;94924.03;;;21.28
45976;BMP280;31696;42.668;23.322;2023-09-19T09:32:49;94918.97;;;21.34
45976;BMP280;31696;42.668;23.322;2023-09-19T09:35:07;94918.75;;;20.98
45976;BMP280;31696;42.668;23.322;2023-09-19T09:37:17;94918.38;;;21.20
45976;BMP280;31696;42.668;23.322;2023-09-19T09:39:30;94919.44;;;21.28
45976;BMP280;31696;42.668;23.322;2023-09-19T09:41:37;94918.16;;;21.60
45976;BMP280;31696;42.668;23.322;2023-09-19T09:43:40;94901.34;;;22.01
45976;BMP280;31696;42.668;23.322;2023-09-19T09:45:41;94924.91;;;21.79
45976;BMP280;31696;42.668;23.322;2023-09-19T09:47:48;94898.63;;;21.99
45976;BMP280;31696;42.668;23.322;2023-09-19T09:49:58;94902.19;;;22.05
45976;BMP280;31696;42.668;23.322;2023-09-19T09:52:07;94896.69;;;21.84
45976;BMP280;31696;42.668;23.322;2023-09-19T09:54:16;94899.75;;;21.78
45976;BMP280;31696;42.668;23.322;2023-09-19T09:56:20;94903.56;;;22.06
45976;BMP280;31696;42.668;23.322;2023-09-19T09:58:20;94897.19;;;22.46
45976;BMP280;31696;42.668;23.322;2023-09-19T10:00:25;94891.59;;;22.05
45976;BMP280;31696;42.668;23.322;2023-09-19T10:02:35;94890.88;;;21.87
45976;BMP280;31696;42.668;23.322;2023-09-19T10:04:40;94888.56;;;21.95
45976;BMP280;31696;42.668;23.322;2023-09-19T10:06:51;94888.75;;;21.99
45976;BMP280;31696;42.668;23.322;2023-09-19T10:09:12;94894.78;;;21.86
45976;BMP280;31696;42.668;23.322;2023-09-19T10:11:16;94893.94;;;21.81
45976;BMP280;31696;42.668;23.322;2023-09-19T10:13:17;94885.84;;;21.93
45976;BMP280;31696;42.668;23.322;2023-09-19T10:15:22;94883.28;;;21.95
45976;BMP280;31696;42.668;23.322;2023-09-19T10:17:27;94885.50;;;21.85
45976;BMP280;31696;42.668;23.322;2023-09-19T10:21:30;94890.13;;;21.69
45976;BMP280;31696;42.668;23.322;2023-09-19T10:23:30;94882.13;;;21.51
45976;BMP280;31696;42.668;23.322;2023-09-19T10:25:34;94890.94;;;22.05
45976;BMP280;31696;42.668;23.322;2023-09-19T10:27:37;94887.97;;;21.81
45976;BMP280;31696;42.668;23.322;2023-09-19T10:29:39;94881.09;;;21.74
45976;BMP280;31696;42.668;23.322;2023-09-19T10:31:39;94877.56;;;21.85
45976;BMP280;31696;42.668;23.322;2023-09-19T10:33:41;94883.19;;;21.93
45976;BMP280;31696;42.668;23.322;2023-09-19T10:35:46;94872.81;;;21.66
45976;BMP280;31696;42.668;23.322;2023-09-19T10:37:47;94874.41;;;21.89
45976;BMP280;31696;42.668;23.322;2023-09-19T10:39:50;94876.19;;;22.00
45976;BMP280;31696;42.668;23.322;2023-09-19T10:41:53;94880.72;;;21.97
45976;BMP280;31696;42.668;23.322;2023-09-19T10:43:53;94874.72;;;22.12
45976;BMP280;31696;42.668;23.322;2023-09-19T10:45:55;94882.97;;;22.20
45976;BMP280;31696;42.668;23.322;2023-09-19T10:47:57;94870.63;;;22.09
45976;BMP280;31696;42.668;23.322;2023-09-19T10:49:58;94861.59;;;22.14
45976;BMP280;31696;42.668;23.322;2023-09-19T10:51:58;94857.72;;;22.17
45976;BMP280;31696;42.668;23.322;2023-09-19T10:54:10;94860.22;;;22.13
45976;BMP280;31696;42.668;23.322;2023-09-19T10:56:18;94859.00;;;22.16
45976;BMP280;31696;42.668;23.322;2023-09-19T10:58:31;94854.53;;;22.03
45976;BMP280;31696;42.668;23.322;2023-09-19T11:00:51;94859.09;;;22.18
45976;BMP280;31696;42.668;23.322;2023-09-19T11:05:12;94848.53;;;22.18
45976;BMP280;31696;42.668;23.322;2023-09-19T11:07:13;94865.41;;;22.11
45976;BMP280;31696;42.668;23.322;2023-09-19T11:09:17;94853.56;;;22.12
45976;BMP280;31696;42.668;23.322;2023-09-19T11:11:41;94848.75;;;22.24
45976;BMP280;31696;42.668;23.322;2023-09-19T11:13:42;94857.22;;;22.38
45976;BMP280;31696;42.668;23.322;2023-09-19T11:17:57;94845.28;;;22.37
45976;BMP280;31696;42.668;23.322;2023-09-19T11:22:23;94852.75;;;22.43
45976;BMP280;31696;42.668;23.322;2023-09-19T11:24:29;94843.38;;;22.57
45976;BMP280;31696;42.668;23.322;2023-09-19T11:26:42;94836.13;;;22.58
45976;BMP280;31696;42.668;23.322;2023-09-19T11:28:48;94840.88;;;22.09
45976;BMP280;31696;42.668;23.322;2023-09-19T11:31:40;94842.94;;;22.28
45976;BMP280;31696;42.668;23.322;2023-09-19T11:33:39;94837.44;;;22.39
45976;BMP280;31696;42.668;23.322;2023-09-19T11:36:02;94827.47;;;22.55
45976;BMP280;31696;42.668;23.322;2023-09-19T11:38:03;94844.38;;;22.66
45976;BMP280;31696;42.668;23.322;2023-09-19T11:40:10;94832.38;;;22.63
45976;BMP280;31696;42.668;23.322;2023-09-19T11:44:36;94802.41;;;22.58
45976;BMP280;31696;42.668;23.322;2023-09-19T11:46:54;94798.53;;;22.62
45976;BMP280;31696;42.668;23.322;2023-09-19T11:48:55;94789.88;;;22.59
45976;BMP280;31696;42.668;23.322;2023-09-19T11:51:10;94788.47;;;22.56
45976;BMP280;31696;42.668;23.322;2023-09-19T11:53:15;94797.72;;;22.57
45976;BMP280;31696;42.668;23.322;2023-09-19T11:55:17;94793.56;;;22.70
45976;BMP280;31696;42.668;23.322;2023-09-19T11:57:21;94793.03;;;22.73
45976;BMP280;31696;42.668;23.322;2023-09-19T11:59:31;94794.25;;;22.70
45976;BMP280;31696;42.668;23.322;2023-09-19T12:01:33;94793.72;;;22.74
45976;BMP280;31696;42.668;23.322;2023-09-19T12:03:35;94790.97;;;22.72
45976;BMP280;31696;42.668;23.322;2023-09-19T12:05:40;94782.53;;;22.75
45976;BMP280;31696;42.668;23.322;2023-09-19T12:07:44;94786.72;;;22.82